sensor_id;sensor_type;location;lat;lon;timestamp;P1;durP1;ratioP1;P2;durP2;ratioP2
35691;SDS011;26978;44.830;-0.674;2022-07-22T00:02:08;7.30;;;4.30;;
35691;SDS011;26978;44.830;-0.674;2022-07-22T00:04:34;11.10;;;4.10;;
35691;SDS011;26978;44.830;-0.674;2022-07-22T00:07:00;8.20;;;4.25;;
35691;SDS011;26978;44.830;-0.674;2022-07-22T00:09:25;10.80;;;4.43;;
35691;SDS011;26978;44.830;-0.674;2022-07-22T00:11:51;12.00;;;5.05;;
35691;SDS011;26978;44.830;-0.674;2022-07-22T00:14:17;6.93;;;4.10;;
35691;SDS011;26978;44.830;-0.674;2022-07-22T00:16:42;6.10;;;4.43;;
35691;SDS011;26978;44.830;-0.674;2022-07-22T00:19:15;10.15;;;4.65;;
35691;SDS011;26978;44.830;-0.674;2022-07-22T00:21:41;8.10;;;4.00;;
35691;SDS011;26978;44.830;-0.674;2022-07-22T00:24:10;8.98;;;5.18;;
35691;SDS011;26978;44.830;-0.674;2022-07-22T00:26:36;9.82;;;4.15;;
35691;SDS011;26978;44.830;-0.674;2022-07-22T00:29:01;7.82;;;3.80;;
35691;SDS011;26978;44.830;-0.674;2022-07-22T00:31:27;7.20;;;4.10;;
35691;SDS011;26978;44.830;-0.674;2022-07-22T00:33:53;8.88;;;4.63;;
35691;SDS011;26978;44.830;-0.674;2022-07-22T00:36:19;6.90;;;4.50;;
35691;SDS011;26978;44.830;-0.674;2022-07-22T00:38:44;10.15;;;4.65;;
35691;SDS011;26978;44.830;-0.674;2022-07-22T00:41:10;11.95;;;4.53;;
35691;SDS011;26978;44.830;-0.674;2022-07-22T00:43:57;7.20;;;4.22;;
35691;SDS011;26978;44.830;-0.674;2022-07-22T00:46:30;6.75;;;4.22;;
35691;SDS011;26978;44.830;-0.674;2022-07-22T00:48:57;12.57;;;4.93;;
35691;SDS011;26978;44.830;-0.674;2022-07-22T00:51:24;10.65;;;4.80;;
35691;SDS011;26978;44.830;-0.674;2022-07-22T00:53:51;5.95;;;4.28;;
35691;SDS011;26978;44.830;-0.674;2022-07-22T00:56:18;7.60;;;4.72;;
35691;SDS011;26978;44.830;-0.674;2022-07-22T00:58:45;8.95;;;4.43;;
35691;SDS011;26978;44.830;-0.674;2022-07-22T01:01:12;4.70;;;4.22;;
35691;SDS011;26978;44.830;-0.674;2022-07-22T01:03:38;10.07;;;4.70;;
35691;SDS011;26978;44.830;-0.674;2022-07-22T01:06:04;4.43;;;4.00;;
35691;SDS011;26978;44.830;-0.674;2022-07-22T01:08:31;8.90;;;4.70;;
35691;SDS011;26978;44.830;-0.674;2022-07-22T01:11:08;12.90;;;5.25;;
35691;SDS011;26978;44.830;-0.674;2022-07-22T01:13:42;6.03;;;4.55;;
35691;SDS011;26978;44.830;-0.674;2022-07-22T01:16:09;10.35;;;4.90;;
35691;SDS011;26978;44.830;-0.674;2022-07-22T01:18:36;8.38;;;5.05;;
35691;SDS011;26978;44.830;-0.674;2022-07-22T01:21:03;10.02;;;4.95;;
35691;SDS011;26978;44.830;-0.674;2022-07-22T01:23:30;11.10;;;4.80;;
35691;SDS011;26978;44.830;-0.674;2022-07-22T01:25:56;13.95;;;5.53;;
35691;SDS011;26978;44.830;-0.674;2022-07-22T01:28:22;16.17;;;5.30;;
35691;SDS011;26978;44.830;-0.674;2022-07-22T01:30:48;12.32;;;4.90;;
35691;SDS011;26978;44.830;-0.674;2022-07-22T01:33:15;7.70;;;4.72;;
35691;SDS011;26978;44.830;-0.674;2022-07-22T01:35:42;11.27;;;4.93;;
35691;SDS011;26978;44.830;-0.674;2022-07-22T01:38:07;10.48;;;4.68;;
35691;SDS011;26978;44.830;-0.674;2022-07-22T01:40:33;8.70;;;5.03;;
35691;SDS011;26978;44.830;-0.674;2022-07-22T01:42:59;8.00;;;4.63;;
35691;SDS011;26978;44.830;-0.674;2022-07-22T01:45:26;11.00;;;4.70;;
35691;SDS011;26978;44.830;-0.674;2022-07-22T01:47:52;8.77;;;4.90;;
35691;SDS011;26978;44.830;-0.674;2022-07-22T01:50:17;7.70;;;4.47;;
35691;SDS011;26978;44.830;-0.674;2022-07-22T01:52:43;9.10;;;4.47;;
35691;SDS011;26978;44.830;-0.674;2022-07-22T01:55:09;9.10;;;5.13;;
35691;SDS011;26978;44.830;-0.674;2022-07-22T01:57:36;7.40;;;5.22;;
35691;SDS011;26978;44.830;-0.674;2022-07-22T02:00:03;9.30;;;5.15;;
35691;SDS011;26978;44.830;-0.674;2022-07-22T02:02:33;10.90;;;5.07;;
35691;SDS011;26978;44.830;-0.674;2022-07-22T02:04:59;10.43;;;4.68;;
35691;SDS011;26978;44.830;-0.674;2022-07-22T02:07:25;7.40;;;4.80;;
35691;SDS011;26978;44.830;-0.674;2022-07-22T02:09:52;6.78;;;4.22;;
35691;SDS011;26978;44.830;-0.674;2022-07-22T02:12:18;8.57;;;5.20;;
35691;SDS011;26978;44.830;-0.674;2022-07-22T02:14:44;10.23;;;5.28;;
35691;SDS011;26978;44.830;-0.674;2022-07-22T02:17:10;10.95;;;5.70;;
35691;SDS011;26978;44.830;-0.674;2022-07-22T02:19:36;10.50;;;4.78;;
35691;SDS011;26978;44.830;-0.674;2022-07-22T02:22:02;9.20;;;4.65;;
35691;SDS011;26978;44.830;-0.674;2022-07-22T02:24:28;10.45;;;4.40;;
35691;SDS011;26978;44.830;-0.674;2022-07-22T02:26:53;8.98;;;5.20;;
35691;SDS011;26978;44.830;-0.674;2022-07-22T02:29:19;9.52;;;4.80;;
35691;SDS011;26978;44.830;-0.674;2022-07-22T02:31:45;11.13;;;4.90;;
35691;SDS011;26978;44.830;-0.674;2022-07-22T02:34:11;9.43;;;5.00;;
35691;SDS011;26978;44.830;-0.674;2022-07-22T02:36:36;8.25;;;4.57;;
35691;SDS011;26978;44.830;-0.674;2022-07-22T02:39:03;9.80;;;5.07;;
35691;SDS011;26978;44.830;-0.674;2022-07-22T02:41:29;11.80;;;5.30;;
35691;SDS011;26978;44.830;-0.674;2022-07-22T02:43:54;13.27;;;5.18;;
35691;SDS011;26978;44.830;-0.674;2022-07-22T02:46:21;7.32;;;5.10;;
35691;SDS011;26978;44.830;-0.674;2022-07-22T02:48:47;7.25;;;5.32;;
35691;SDS011;26978;44.830;-0.674;2022-07-22T02:51:12;8.45;;;5.25;;
35691;SDS011;26978;44.830;-0.674;2022-07-22T02:53:38;12.50;;;5.93;;
35691;SDS011;26978;44.830;-0.674;2022-07-22T02:56:06;9.90;;;5.57;;
35691;SDS011;26978;44.830;-0.674;2022-07-22T02:58:32;9.70;;;6.35;;
35691;SDS011;26978;44.830;-0.674;2022-07-22T03:00:57;14.48;;;6.55;;
35691;SDS011;26978;44.830;-0.674;2022-07-22T03:03:23;13.20;;;6.60;;
35691;SDS011;26978;44.830;-0.674;2022-07-22T03:05:49;13.30;;;6.78;;
35691;SDS011;26978;44.830;-0.674;2022-07-22T03:08:15;7.63;;;5.93;;
35691;SDS011;26978;44.830;-0.674;2022-07-22T03:10:40;10.82;;;6.18;;
35691;SDS011;26978;44.830;-0.674;2022-07-22T03:13:06;12.60;;;6.75;;
35691;SDS011;26978;44.830;-0.674;2022-07-22T03:15:32;9.77;;;6.32;;
35691;SDS011;26978;44.830;-0.674;2022-07-22T03:17:58;9.10;;;6.45;;
35691;SDS011;26978;44.830;-0.674;2022-07-22T03:20:23;13.30;;;6.03;;
35691;SDS011;26978;44.830;-0.674;2022-07-22T03:22:49;13.07;;;6.72;;
35691;SDS011;26978;44.830;-0.674;2022-07-22T03:25:14;9.93;;;6.35;;
35691;SDS011;26978;44.830;-0.674;2022-07-22T03:27:40;13.90;;;6.88;;
35691;SDS011;26978;44.830;-0.674;2022-07-22T03:30:06;14.15;;;7.20;;
35691;SDS011;26978;44.830;-0.674;2022-07-22T03:32:32;8.73;;;6.63;;
35691;SDS011;26978;44.830;-0.674;2022-07-22T03:34:57;14.38;;;7.28;;
35691;SDS011;26978;44.830;-0.674;2022-07-22T03:37:23;12.10;;;6.50;;
35691;SDS011;26978;44.830;-0.674;2022-07-22T03:39:49;9.48;;;6.78;;
35691;SDS011;26978;44.830;-0.674;2022-07-22T03:42:14;9.48;;;6.82;;
35691;SDS011;26978;44.830;-0.674;2022-07-22T03:44:40;11.85;;;7.72;;
35691;SDS011;26978;44.830;-0.674;2022-07-22T03:47:06;10.13;;;7.35;;
35691;SDS011;26978;44.830;-0.674;2022-07-22T03:49:31;11.80;;;7.93;;
35691;SDS011;26978;44.830;-0.674;2022-07-22T03:51:57;11.43;;;7.40;;
35691;SDS011;26978;44.830;-0.674;2022-07-22T03:54:23;10.18;;;7.25;;
35691;SDS011;26978;44.830;-0.674;2022-07-22T03:56:49;14.18;;;7.97;;
35691;SDS011;26978;44.830;-0.674;2022-07-22T03:59:15;14.77;;;8.48;;
35691;SDS011;26978;44.830;-0.674;2022-07-22T04:01:41;15.48;;;8.05;;
35691;SDS011;26978;44.830;-0.674;2022-07-22T04:04:07;14.38;;;8.00;;
35691;SDS011;26978;44.830;-0.674;2022-07-22T04:06:33;10.82;;;7.53;;
35691;SDS011;26978;44.830;-0.674;2022-07-22T04:08:59;13.93;;;8.10;;
35691;SDS011;26978;44.830;-0.674;2022-07-22T04:11:25;14.27;;;8.10;;
35691;SDS011;26978;44.830;-0.674;2022-07-22T04:13:51;15.60;;;8.10;;
35691;SDS011;26978;44.830;-0.674;2022-07-22T04:16:17;13.88;;;8.50;;
35691;SDS011;26978;44.830;-0.674;2022-07-22T04:18:43;13.98;;;8.27;;
35691;SDS011;26978;44.830;-0.674;2022-07-22T04:21:09;12.93;;;7.95;;
35691;SDS011;26978;44.830;-0.674;2022-07-22T04:23:35;12.50;;;7.75;;
35691;SDS011;26978;44.830;-0.674;2022-07-22T04:26:00;8.93;;;7.30;;
35691;SDS011;26978;44.830;-0.674;2022-07-22T04:28:26;11.93;;;8.00;;
35691;SDS011;26978;44.830;-0.674;2022-07-22T04:30:52;11.77;;;7.95;;
35691;SDS011;26978;44.830;-0.674;2022-07-22T04:33:18;20.83;;;8.05;;
35691;SDS011;26978;44.830;-0.674;2022-07-22T04:35:43;13.07;;;8.07;;
35691;SDS011;26978;44.830;-0.674;2022-07-22T04:38:09;14.00;;;8.10;;
35691;SDS011;26978;44.830;-0.674;2022-07-22T04:40:35;10.85;;;7.68;;
35691;SDS011;26978;44.830;-0.674;2022-07-22T04:43:00;12.48;;;7.95;;
35691;SDS011;26978;44.830;-0.674;2022-07-22T04:45:26;12.75;;;8.18;;
35691;SDS011;26978;44.830;-0.674;2022-07-22T04:47:52;17.70;;;8.63;;
35691;SDS011;26978;44.830;-0.674;2022-07-22T04:50:17;12.25;;;7.88;;
35691;SDS011;26978;44.830;-0.674;2022-07-22T04:52:43;16.23;;;8.48;;
35691;SDS011;26978;44.830;-0.674;2022-07-22T04:55:09;25.60;;;8.77;;
35691;SDS011;26978;44.830;-0.674;2022-07-22T04:57:35;12.35;;;8.18;;
35691;SDS011;26978;44.830;-0.674;2022-07-22T05:00:01;15.65;;;7.95;;
35691;SDS011;26978;44.830;-0.674;2022-07-22T05:02:27;14.68;;;8.57;;
35691;SDS011;26978;44.830;-0.674;2022-07-22T05:04:53;14.75;;;7.53;;
35691;SDS011;26978;44.830;-0.674;2022-07-22T05:07:19;16.35;;;8.15;;
35691;SDS011;26978;44.830;-0.674;2022-07-22T05:09:45;13.35;;;8.00;;
35691;SDS011;26978;44.830;-0.674;2022-07-22T05:12:10;17.45;;;9.45;;
35691;SDS011;26978;44.830;-0.674;2022-07-22T05:14:36;17.48;;;7.40;;
35691;SDS011;26978;44.830;-0.674;2022-07-22T05:17:02;19.70;;;8.90;;
35691;SDS011;26978;44.830;-0.674;2022-07-22T05:19:27;20.58;;;8.55;;
35691;SDS011;26978;44.830;-0.674;2022-07-22T05:21:53;20.30;;;9.15;;
35691;SDS011;26978;44.830;-0.674;2022-07-22T05:24:19;18.75;;;8.57;;
35691;SDS011;26978;44.830;-0.674;2022-07-22T05:26:44;20.05;;;8.82;;
35691;SDS011;26978;44.830;-0.674;2022-07-22T05:29:10;17.65;;;7.95;;
35691;SDS011;26978;44.830;-0.674;2022-07-22T05:31:35;15.35;;;7.95;;
35691;SDS011;26978;44.830;-0.674;2022-07-22T05:34:01;17.13;;;8.65;;
35691;SDS011;26978;44.830;-0.674;2022-07-22T05:36:28;14.18;;;8.68;;
35691;SDS011;26978;44.830;-0.674;2022-07-22T05:38:54;22.38;;;9.13;;
35691;SDS011;26978;44.830;-0.674;2022-07-22T05:41:19;16.65;;;8.02;;
35691;SDS011;26978;44.830;-0.674;2022-07-22T05:43:45;17.88;;;8.05;;
35691;SDS011;26978;44.830;-0.674;2022-07-22T05:46:11;16.80;;;8.75;;
35691;SDS011;26978;44.830;-0.674;2022-07-22T05:48:36;23.00;;;7.65;;
35691;SDS011;26978;44.830;-0.674;2022-07-22T05:51:02;21.17;;;7.68;;
35691;SDS011;26978;44.830;-0.674;2022-07-22T05:53:28;20.98;;;8.07;;
35691;SDS011;26978;44.830;-0.674;2022-07-22T05:55:53;22.58;;;7.45;;
35691;SDS011;26978;44.830;-0.674;2022-07-22T05:58:19;23.55;;;8.00;;
35691;SDS011;26978;44.830;-0.674;2022-07-22T06:00:45;19.58;;;7.45;;
35691;SDS011;26978;44.830;-0.674;2022-07-22T06:03:11;20.33;;;7.80;;
35691;SDS011;26978;44.830;-0.674;2022-07-22T06:05:36;29.00;;;8.30;;
35691;SDS011;26978;44.830;-0.674;2022-07-22T06:08:02;25.77;;;7.22;;
35691;SDS011;26978;44.830;-0.674;2022-07-22T06:10:29;26.90;;;7.30;;
35691;SDS011;26978;44.830;-0.674;2022-07-22T06:12:55;18.58;;;7.05;;
35691;SDS011;26978;44.830;-0.674;2022-07-22T06:15:20;25.95;;;7.28;;
35691;SDS011;26978;44.830;-0.674;2022-07-22T06:17:46;26.35;;;7.13;;
35691;SDS011;26978;44.830;-0.674;2022-07-22T06:20:11;15.90;;;6.30;;
35691;SDS011;26978;44.830;-0.674;2022-07-22T06:22:39;19.02;;;6.78;;
35691;SDS011;26978;44.830;-0.674;2022-07-22T06:25:05;13.60;;;5.88;;
35691;SDS011;26978;44.830;-0.674;2022-07-22T06:27:31;16.67;;;6.35;;
35691;SDS011;26978;44.830;-0.674;2022-07-22T06:29:57;18.65;;;5.82;;
35691;SDS011;26978;44.830;-0.674;2022-07-22T06:32:23;15.43;;;6.95;;
35691;SDS011;26978;44.830;-0.674;2022-07-22T06:34:48;15.65;;;6.60;;
35691;SDS011;26978;44.830;-0.674;2022-07-22T06:37:14;23.85;;;6.95;;
35691;SDS011;26978;44.830;-0.674;2022-07-22T06:39:40;13.45;;;6.10;;
35691;SDS011;26978;44.830;-0.674;2022-07-22T06:42:06;14.65;;;5.65;;
35691;SDS011;26978;44.830;-0.674;2022-07-22T06:44:32;12.02;;;5.80;;
35691;SDS011;26978;44.830;-0.674;2022-07-22T06:46:58;16.33;;;5.63;;
35691;SDS011;26978;44.830;-0.674;2022-07-22T06:49:23;17.90;;;6.13;;
35691;SDS011;26978;44.830;-0.674;2022-07-22T06:51:49;12.40;;;5.82;;
35691;SDS011;26978;44.830;-0.674;2022-07-22T06:54:15;15.55;;;5.68;;
35691;SDS011;26978;44.830;-0.674;2022-07-22T06:56:40;10.57;;;5.45;;
35691;SDS011;26978;44.830;-0.674;2022-07-22T06:59:06;14.25;;;5.65;;
35691;SDS011;26978;44.830;-0.674;2022-07-22T07:01:32;16.08;;;5.28;;
35691;SDS011;26978;44.830;-0.674;2022-07-22T07:03:58;12.02;;;5.20;;
35691;SDS011;26978;44.830;-0.674;2022-07-22T07:06:23;13.13;;;5.03;;
35691;SDS011;26978;44.830;-0.674;2022-07-22T07:08:49;17.52;;;5.45;;
35691;SDS011;26978;44.830;-0.674;2022-07-22T07:11:15;17.77;;;5.35;;
35691;SDS011;26978;44.830;-0.674;2022-07-22T07:13:40;10.85;;;5.43;;
35691;SDS011;26978;44.830;-0.674;2022-07-22T07:16:06;13.45;;;5.00;;
35691;SDS011;26978;44.830;-0.674;2022-07-22T07:18:32;11.88;;;4.88;;
35691;SDS011;26978;44.830;-0.674;2022-07-22T07:20:57;10.38;;;5.00;;
35691;SDS011;26978;44.830;-0.674;2022-07-22T07:23:23;10.20;;;4.90;;
35691;SDS011;26978;44.830;-0.674;2022-07-22T07:25:49;15.88;;;5.30;;
35691;SDS011;26978;44.830;-0.674;2022-07-22T07:28:15;11.90;;;4.22;;
35691;SDS011;26978;44.830;-0.674;2022-07-22T07:30:40;11.02;;;4.45;;
35691;SDS011;26978;44.830;-0.674;2022-07-22T07:33:06;16.67;;;4.88;;
35691;SDS011;26978;44.830;-0.674;2022-07-22T07:35:32;8.98;;;4.53;;
35691;SDS011;26978;44.830;-0.674;2022-07-22T07:37:58;10.07;;;4.28;;
35691;SDS011;26978;44.830;-0.674;2022-07-22T07:40:24;9.38;;;4.53;;
35691;SDS011;26978;44.830;-0.674;2022-07-22T07:42:50;9.27;;;4.00;;
35691;SDS011;26978;44.830;-0.674;2022-07-22T07:45:16;14.32;;;4.80;;
35691;SDS011;26978;44.830;-0.674;2022-07-22T07:47:41;10.80;;;4.00;;
35691;SDS011;26978;44.830;-0.674;2022-07-22T07:50:07;7.55;;;4.13;;
35691;SDS011;26978;44.830;-0.674;2022-07-22T07:52:37;15.68;;;4.30;;
35691;SDS011;26978;44.830;-0.674;2022-07-22T07:55:04;9.07;;;4.53;;
35691;SDS011;26978;44.830;-0.674;2022-07-22T07:57:32;12.15;;;4.20;;
35691;SDS011;26978;44.830;-0.674;2022-07-22T07:59:57;10.82;;;4.57;;
35691;SDS011;26978;44.830;-0.674;2022-07-22T08:02:23;13.88;;;4.28;;
35691;SDS011;26978;44.830;-0.674;2022-07-22T08:04:49;10.45;;;4.32;;
35691;SDS011;26978;44.830;-0.674;2022-07-22T08:07:14;13.70;;;4.60;;
35691;SDS011;26978;44.830;-0.674;2022-07-22T08:09:40;15.57;;;4.05;;
35691;SDS011;26978;44.830;-0.674;2022-07-22T08:12:06;7.57;;;3.65;;
35691;SDS011;26978;44.830;-0.674;2022-07-22T08:14:32;8.00;;;3.67;;
35691;SDS011;26978;44.830;-0.674;2022-07-22T08:16:58;11.50;;;4.28;;
35691;SDS011;26978;44.830;-0.674;2022-07-22T08:19:24;8.02;;;3.97;;
35691;SDS011;26978;44.830;-0.674;2022-07-22T08:21:50;10.45;;;3.63;;
35691;SDS011;26978;44.830;-0.674;2022-07-22T08:24:15;15.25;;;4.18;;
35691;SDS011;26978;44.830;-0.674;2022-07-22T08:26:41;10.30;;;3.55;;
35691;SDS011;26978;44.830;-0.674;2022-07-22T08:29:07;9.93;;;3.50;;
35691;SDS011;26978;44.830;-0.674;2022-07-22T08:31:34;5.47;;;3.22;;
35691;SDS011;26978;44.830;-0.674;2022-07-22T08:34:01;5.97;;;3.03;;
35691;SDS011;26978;44.830;-0.674;2022-07-22T08:36:28;7.47;;;3.00;;
35691;SDS011;26978;44.830;-0.674;2022-07-22T08:38:54;7.20;;;2.80;;
35691;SDS011;26978;44.830;-0.674;2022-07-22T08:41:22;12.88;;;3.20;;
35691;SDS011;26978;44.830;-0.674;2022-07-22T08:43:49;18.05;;;3.20;;
35691;SDS011;26978;44.830;-0.674;2022-07-22T08:46:15;15.75;;;3.22;;
35691;SDS011;26978;44.830;-0.674;2022-07-22T08:48:41;12.48;;;3.20;;
35691;SDS011;26978;44.830;-0.674;2022-07-22T08:51:07;13.93;;;2.83;;
35691;SDS011;26978;44.830;-0.674;2022-07-22T08:53:33;6.72;;;3.20;;
35691;SDS011;26978;44.830;-0.674;2022-07-22T08:55:59;4.80;;;2.55;;
35691;SDS011;26978;44.830;-0.674;2022-07-22T08:58:25;8.13;;;2.60;;
35691;SDS011;26978;44.830;-0.674;2022-07-22T09:01:07;16.27;;;3.53;;
35691;SDS011;26978;44.830;-0.674;2022-07-22T09:03:50;7.05;;;2.30;;
35691;SDS011;26978;44.830;-0.674;2022-07-22T09:06:18;11.77;;;2.72;;
35691;SDS011;26978;44.830;-0.674;2022-07-22T09:08:58;12.48;;;2.33;;
35691;SDS011;26978;44.830;-0.674;2022-07-22T09:11:29;9.35;;;2.42;;
35691;SDS011;26978;44.830;-0.674;2022-07-22T09:13:56;12.15;;;2.30;;
35691;SDS011;26978;44.830;-0.674;2022-07-22T09:19:09;6.80;;;2.15;;
35691;SDS011;26978;44.830;-0.674;2022-07-22T09:21:35;8.70;;;2.13;;
35691;SDS011;26978;44.830;-0.674;2022-07-22T09:24:04;8.55;;;2.05;;
35691;SDS011;26978;44.830;-0.674;2022-07-22T09:28:57;3.55;;;1.80;;
35691;SDS011;26978;44.830;-0.674;2022-07-22T09:31:28;9.32;;;2.13;;
35691;SDS011;26978;44.830;-0.674;2022-07-22T09:34:01;7.60;;;2.25;;
35691;SDS011;26978;44.830;-0.674;2022-07-22T09:36:29;3.85;;;1.73;;
35691;SDS011;26978;44.830;-0.674;2022-07-22T09:38:55;8.65;;;1.95;;
35691;SDS011;26978;44.830;-0.674;2022-07-22T09:41:21;4.28;;;1.70;;
35691;SDS011;26978;44.830;-0.674;2022-07-22T09:43:47;3.92;;;1.75;;
35691;SDS011;26978;44.830;-0.674;2022-07-22T09:46:15;12.98;;;1.92;;
35691;SDS011;26978;44.830;-0.674;2022-07-22T09:48:41;7.03;;;1.88;;
35691;SDS011;26978;44.830;-0.674;2022-07-22T09:51:08;6.80;;;1.92;;
35691;SDS011;26978;44.830;-0.674;2022-07-22T09:53:34;6.03;;;2.10;;
35691;SDS011;26978;44.830;-0.674;2022-07-22T09:56:01;9.40;;;2.15;;
35691;SDS011;26978;44.830;-0.674;2022-07-22T09:58:29;13.82;;;2.50;;
35691;SDS011;26978;44.830;-0.674;2022-07-22T10:00:57;10.85;;;2.35;;
35691;SDS011;26978;44.830;-0.674;2022-07-22T10:03:32;10.18;;;2.00;;
35691;SDS011;26978;44.830;-0.674;2022-07-22T10:05:59;6.07;;;1.98;;
35691;SDS011;26978;44.830;-0.674;2022-07-22T10:08:27;5.95;;;2.03;;
35691;SDS011;26978;44.830;-0.674;2022-07-22T10:10:55;7.00;;;1.77;;
35691;SDS011;26978;44.830;-0.674;2022-07-22T10:13:25;6.30;;;1.92;;
35691;SDS011;26978;44.830;-0.674;2022-07-22T10:15:51;11.32;;;2.47;;
35691;SDS011;26978;44.830;-0.674;2022-07-22T10:18:18;6.28;;;2.20;;
35691;SDS011;26978;44.830;-0.674;2022-07-22T10:20:45;9.63;;;2.30;;
35691;SDS011;26978;44.830;-0.674;2022-07-22T10:23:11;8.68;;;2.20;;
35691;SDS011;26978;44.830;-0.674;2022-07-22T10:25:54;10.23;;;2.80;;
35691;SDS011;26978;44.830;-0.674;2022-07-22T10:28:30;10.23;;;3.00;;
35691;SDS011;26978;44.830;-0.674;2022-07-22T10:31:17;8.02;;;3.15;;
35691;SDS011;26978;44.830;-0.674;2022-07-22T10:33:45;14.73;;;3.03;;
35691;SDS011;26978;44.830;-0.674;2022-07-22T10:36:14;11.43;;;3.45;;
35691;SDS011;26978;44.830;-0.674;2022-07-22T10:41:36;5.63;;;2.50;;
35691;SDS011;26978;44.830;-0.674;2022-07-22T10:44:02;6.60;;;2.95;;
35691;SDS011;26978;44.830;-0.674;2022-07-22T10:46:47;8.90;;;2.83;;
35691;SDS011;26978;44.830;-0.674;2022-07-22T10:49:19;7.60;;;2.83;;
35691;SDS011;26978;44.830;-0.674;2022-07-22T10:52:31;6.55;;;3.00;;
35691;SDS011;26978;44.830;-0.674;2022-07-22T10:54:33;5.28;;;2.85;;
35691;SDS011;26978;44.830;-0.674;2022-07-22T10:56:59;8.00;;;3.28;;
35691;SDS011;26978;44.830;-0.674;2022-07-22T10:59:25;11.52;;;3.33;;
35691;SDS011;26978;44.830;-0.674;2022-07-22T11:01:51;11.13;;;3.03;;
35691;SDS011;26978;44.830;-0.674;2022-07-22T11:04:23;8.15;;;2.85;;
35691;SDS011;26978;44.830;-0.674;2022-07-22T11:06:53;5.70;;;2.95;;
35691;SDS011;26978;44.830;-0.674;2022-07-22T11:09:21;8.23;;;3.35;;
35691;SDS011;26978;44.830;-0.674;2022-07-22T11:11:55;7.82;;;2.65;;
35691;SDS011;26978;44.830;-0.674;2022-07-22T11:19:32;9.75;;;3.25;;
35691;SDS011;26978;44.830;-0.674;2022-07-22T11:22:02;8.32;;;2.80;;
35691;SDS011;26978;44.830;-0.674;2022-07-22T11:24:30;11.27;;;3.38;;
35691;SDS011;26978;44.830;-0.674;2022-07-22T11:26:56;7.07;;;2.88;;
35691;SDS011;26978;44.830;-0.674;2022-07-22T11:29:27;9.27;;;3.63;;
35691;SDS011;26978;44.830;-0.674;2022-07-22T11:32:05;11.35;;;3.85;;
35691;SDS011;26978;44.830;-0.674;2022-07-22T11:34:41;13.15;;;4.03;;
35691;SDS011;26978;44.830;-0.674;2022-07-22T11:37:15;8.55;;;3.05;;
35691;SDS011;26978;44.830;-0.674;2022-07-22T11:39:42;10.43;;;3.13;;
35691;SDS011;26978;44.830;-0.674;2022-07-22T11:42:08;7.35;;;2.92;;
35691;SDS011;26978;44.830;-0.674;2022-07-22T11:44:35;6.00;;;2.30;;
35691;SDS011;26978;44.830;-0.674;2022-07-22T11:47:03;6.03;;;2.50;;
35691;SDS011;26978;44.830;-0.674;2022-07-22T11:49:31;10.48;;;3.28;;
35691;SDS011;26978;44.830;-0.674;2022-07-22T11:51:59;5.15;;;2.65;;
35691;SDS011;26978;44.830;-0.674;2022-07-22T11:54:25;7.25;;;2.33;;
35691;SDS011;26978;44.830;-0.674;2022-07-22T11:56:51;7.50;;;2.63;;
35691;SDS011;26978;44.830;-0.674;2022-07-22T11:59:17;12.00;;;3.17;;
35691;SDS011;26978;44.830;-0.674;2022-07-22T12:01:43;8.93;;;2.38;;
35691;SDS011;26978;44.830;-0.674;2022-07-22T12:04:18;9.60;;;2.40;;
35691;SDS011;26978;44.830;-0.674;2022-07-22T12:06:46;7.88;;;2.13;;
35691;SDS011;26978;44.830;-0.674;2022-07-22T12:09:13;7.75;;;2.70;;
35691;SDS011;26978;44.830;-0.674;2022-07-22T12:11:41;8.88;;;2.70;;
35691;SDS011;26978;44.830;-0.674;2022-07-22T12:14:10;5.50;;;2.25;;
35691;SDS011;26978;44.830;-0.674;2022-07-22T12:16:39;6.85;;;2.22;;
35691;SDS011;26978;44.830;-0.674;2022-07-22T12:19:10;12.10;;;2.45;;
35691;SDS011;26978;44.830;-0.674;2022-07-22T12:24:34;9.98;;;2.63;;
35691;SDS011;26978;44.830;-0.674;2022-07-22T12:32:02;7.80;;;2.40;;
35691;SDS011;26978;44.830;-0.674;2022-07-22T12:40:04;7.45;;;2.80;;
35691;SDS011;26978;44.830;-0.674;2022-07-22T12:42:34;10.30;;;3.20;;
35691;SDS011;26978;44.830;-0.674;2022-07-22T12:45:09;6.60;;;2.90;;
35691;SDS011;26978;44.830;-0.674;2022-07-22T12:52:49;6.38;;;2.10;;
35691;SDS011;26978;44.830;-0.674;2022-07-22T12:55:16;9.32;;;2.47;;
35691;SDS011;26978;44.830;-0.674;2022-07-22T12:57:42;11.02;;;2.45;;
35691;SDS011;26978;44.830;-0.674;2022-07-22T13:00:08;10.73;;;2.30;;
35691;SDS011;26978;44.830;-0.674;2022-07-22T13:02:35;5.43;;;2.00;;
35691;SDS011;26978;44.830;-0.674;2022-07-22T13:05:00;11.07;;;2.60;;
35691;SDS011;26978;44.830;-0.674;2022-07-22T13:07:26;10.75;;;2.63;;
35691;SDS011;26978;44.830;-0.674;2022-07-22T13:09:51;8.38;;;2.70;;
35691;SDS011;26978;44.830;-0.674;2022-07-22T13:12:17;9.88;;;2.53;;
35691;SDS011;26978;44.830;-0.674;2022-07-22T13:14:43;5.30;;;2.20;;
35691;SDS011;26978;44.830;-0.674;2022-07-22T13:17:09;6.78;;;2.40;;
35691;SDS011;26978;44.830;-0.674;2022-07-22T13:19:36;8.05;;;2.58;;
35691;SDS011;26978;44.830;-0.674;2022-07-22T13:22:01;8.68;;;2.45;;
35691;SDS011;26978;44.830;-0.674;2022-07-22T13:24:27;6.90;;;2.45;;
35691;SDS011;26978;44.830;-0.674;2022-07-22T13:26:53;9.23;;;2.10;;
35691;SDS011;26978;44.830;-0.674;2022-07-22T13:29:18;6.97;;;2.67;;
35691;SDS011;26978;44.830;-0.674;2022-07-22T13:31:44;9.60;;;2.72;;
35691;SDS011;26978;44.830;-0.674;2022-07-22T13:34:10;6.00;;;2.30;;
35691;SDS011;26978;44.830;-0.674;2022-07-22T13:36:35;9.10;;;2.50;;
35691;SDS011;26978;44.830;-0.674;2022-07-22T13:39:01;7.28;;;2.50;;
35691;SDS011;26978;44.830;-0.674;2022-07-22T13:41:27;8.93;;;2.53;;
35691;SDS011;26978;44.830;-0.674;2022-07-22T13:43:53;10.57;;;2.85;;
35691;SDS011;26978;44.830;-0.674;2022-07-22T13:46:19;10.02;;;2.60;;
35691;SDS011;26978;44.830;-0.674;2022-07-22T13:48:45;10.05;;;2.38;;
35691;SDS011;26978;44.830;-0.674;2022-07-22T13:51:10;9.18;;;2.25;;
35691;SDS011;26978;44.830;-0.674;2022-07-22T13:53:36;8.35;;;2.35;;
35691;SDS011;26978;44.830;-0.674;2022-07-22T13:56:03;9.80;;;2.60;;
35691;SDS011;26978;44.830;-0.674;2022-07-22T13:58:29;8.35;;;2.60;;
35691;SDS011;26978;44.830;-0.674;2022-07-22T14:00:55;8.05;;;3.05;;
35691;SDS011;26978;44.830;-0.674;2022-07-22T14:03:21;5.05;;;2.53;;
35691;SDS011;26978;44.830;-0.674;2022-07-22T14:05:47;13.65;;;2.97;;
35691;SDS011;26978;44.830;-0.674;2022-07-22T14:08:13;7.95;;;2.22;;
35691;SDS011;26978;44.830;-0.674;2022-07-22T14:10:39;12.20;;;2.80;;
35691;SDS011;26978;44.830;-0.674;2022-07-22T14:13:04;1.98;;;1.77;;
35691;SDS011;26978;44.830;-0.674;2022-07-22T14:15:31;7.45;;;2.25;;
35691;SDS011;26978;44.830;-0.674;2022-07-22T14:17:57;6.57;;;2.33;;
35691;SDS011;26978;44.830;-0.674;2022-07-22T14:20:23;7.00;;;2.63;;
35691;SDS011;26978;44.830;-0.674;2022-07-22T14:22:49;10.20;;;2.53;;
35691;SDS011;26978;44.830;-0.674;2022-07-22T14:25:14;7.30;;;2.63;;
35691;SDS011;26978;44.830;-0.674;2022-07-22T14:27:40;6.45;;;2.67;;
35691;SDS011;26978;44.830;-0.674;2022-07-22T14:30:06;5.88;;;2.78;;
35691;SDS011;26978;44.830;-0.674;2022-07-22T14:32:32;5.57;;;2.67;;
35691;SDS011;26978;44.830;-0.674;2022-07-22T14:34:58;5.88;;;2.22;;
35691;SDS011;26978;44.830;-0.674;2022-07-22T14:37:23;12.18;;;2.67;;
35691;SDS011;26978;44.830;-0.674;2022-07-22T14:39:50;6.30;;;2.58;;
35691;SDS011;26978;44.830;-0.674;2022-07-22T14:42:16;13.07;;;2.72;;
35691;SDS011;26978;44.830;-0.674;2022-07-22T14:44:42;7.25;;;2.47;;
35691;SDS011;26978;44.830;-0.674;2022-07-22T14:47:07;6.40;;;3.20;;
35691;SDS011;26978;44.830;-0.674;2022-07-22T14:49:33;4.43;;;2.60;;
35691;SDS011;26978;44.830;-0.674;2022-07-22T14:52:00;5.45;;;2.30;;
35691;SDS011;26978;44.830;-0.674;2022-07-22T14:54:25;9.20;;;2.97;;
35691;SDS011;26978;44.830;-0.674;2022-07-22T14:56:51;5.95;;;2.20;;
35691;SDS011;26978;44.830;-0.674;2022-07-22T14:59:17;5.70;;;2.35;;